Terminal Aerodrome Forecast
Issued by NWS Sterling, VA

Current Version | Previous Version | Graphics & Text | Print | Product List | Glossary On
Versions: 1 2 3 4 5 6 7 8 9 10 11 12 13 14 15 16 17 18 19 20 21
000
FTUS41 KLWX 192300 RRA
TAFDCA
TAF
KDCA 192343Z 2000/2024 18010KT P6SM SCT250
     FM200300 20011KT P6SM BKN090
     FM200800 22009KT P6SM SCT090
     FM201800 26013G21KT P6SM SCT050
     FM202200 27008KT P6SM SCT250=

USA.gov is the U.S. government's official web portal to all federal, state and local government web resources and services.